Portada
METAR-TAF:

METAR-TAF

Aeroports :

Alexandria, Egipte

latitud: 31-12N, longitud: 029-57E, altitud: -2 m

Observació

L'informe es va fer fa 53 minuts, a les 05:00 UTC
Vent calma
Temperatura 8°C
Humitat 81%
Pressió 1028 hPa
Visibilitat 10 km o més
Núvols disperses a una alçada de 2000 ft
Núvols disperses a una alçada de 2200 ft

METAR: HEAX 210500Z 00000KT 9999 SCT020 SCT022 08/05 Q1028 NOSIG

Hora: 07:53 (05:53 UTC)

Pronòstic

L'informe es va fer fa 53 minuts, a les 05:00 UTC
Pronòstic vàlid del 21 a les 06 UTC al 22 a les 12 UTC
Vent 10 kt del Nord/Nord-Oest
Visibilitat 10 km o més
Núvols disperses a una alçada de 2000 ft
Núvols disperses a una alçada de 2200 ft
Temporalment
l' 21 a les 00 UTC al 21 a les 06 UTC
Vent 3 kt amb direcció variable
Visibilitat: 4000 m
boirina
Evolucionant progressivament
l' 21 a les 12 UTC al 21 a les 14 UTC
Vent 10 kt del Sud-Oest

TAF: HEAX 210500Z 2106/2212 33010KT 9999 SCT020 SCT022 TEMPO 2100/2106 VRB03KT 4000 BR NSC BECMG 2112/2114 22010KT

Observacions i pronòstics meteorològics de més de 4000 aeroports (METAR i TAF).

Les estacions disponibles són els punts grocs i vermells al mapa.

Posi el ratolí al punt desitjat per veure el nom de l'estació.

Feu clic per veure les observacions i els pronòstics meteorològics.

Per canviar el mapa: feu clic els botons verds amb una creu de color negre per apropar; al botó verd amb un guió per allunyar la imatge; o en les fletxes verdes per a mapes adjacents.


METAR-TAF: